Aviation Digital Data Service (ADDS)

Output produced by METARs form (0836 UTC 17 November 2018)
found at http://www.aviationweather.gov/metar/data/
 
METAR text: CYFB 170800Z 33006KT 15SM SKC M26/M30 A2982 RMK SLP106
Conditions at: CYFB (FROBISHER/IQALUI, NU, CA) observed 0800 UTC 17 November 2018
Temperature: -26.0°C (-15°F)
Dewpoint: -30.0°C (-22°F) [RH = 69%]
Pressure (altimeter): 29.82 inches Hg (1009.9 mb)
[Sea-level pressure: 1010.6 mb]
Winds: from the NNW (330 degrees) at 7 MPH (6 knots; 3.1 m/s)
Visibility: 15 miles (24 km)
Ceiling: at least 12,000 feet AGL
Clouds: clear skies
Weather: no significant weather observed at this time

METAR text: CYFB 170700Z 33010KT 15SM SKC M26/M30 A2984 RMK SLP110
Conditions at: CYFB (FROBISHER/IQALUI, NU, CA) observed 0700 UTC 17 November 2018
Temperature: -26.0°C (-15°F)
Dewpoint: -30.0°C (-22°F) [RH = 69%]
Pressure (altimeter): 29.84 inches Hg (1010.6 mb)
[Sea-level pressure: 1011.0 mb]
Winds: from the NNW (330 degrees) at 12 MPH (10 knots; 5.1 m/s)
Visibility: 15 miles (24 km)
Ceiling: at least 12,000 feet AGL
Clouds: clear skies
Weather: no significant weather observed at this time

METAR text: CYFB 170600Z 32009KT 15SM SKC M25/M29 A2984 RMK SLP113
Conditions at: CYFB (FROBISHER/IQALUI, NU, CA) observed 0600 UTC 17 November 2018
Temperature: -25.0°C (-13°F)
Dewpoint: -29.0°C (-20°F) [RH = 69%]
Pressure (altimeter): 29.84 inches Hg (1010.6 mb)
[Sea-level pressure: 1011.3 mb]
Winds: from the NW (320 degrees) at 10 MPH (9 knots; 4.6 m/s)
Visibility: 15 miles (24 km)
Ceiling: at least 12,000 feet AGL
Clouds: clear skies
Weather: no significant weather observed at this time

METAR text: CYFB 170500Z 33009KT 15SM SKC M26/M30 A2985 RMK SLP114
Conditions at: CYFB (FROBISHER/IQALUI, NU, CA) observed 0500 UTC 17 November 2018
Temperature: -26.0°C (-15°F)
Dewpoint: -30.0°C (-22°F) [RH = 69%]
Pressure (altimeter): 29.85 inches Hg (1010.9 mb)
[Sea-level pressure: 1011.4 mb]
Winds: from the NNW (330 degrees) at 10 MPH (9 knots; 4.6 m/s)
Visibility: 15 miles (24 km)
Ceiling: at least 12,000 feet AGL
Clouds: clear skies
Weather: no significant weather observed at this time

METAR text: CYFB 170400Z 33010KT 15SM FEW250 M26/M30 A2986 RMK CI1 SLP119
Conditions at: CYFB (FROBISHER/IQALUI, NU, CA) observed 0400 UTC 17 November 2018
Temperature: -26.0°C (-15°F)
Dewpoint: -30.0°C (-22°F) [RH = 69%]
Pressure (altimeter): 29.86 inches Hg (1011.3 mb)
[Sea-level pressure: 1011.9 mb]
Winds: from the NNW (330 degrees) at 12 MPH (10 knots; 5.1 m/s)
Visibility: 15 miles (24 km)
Ceiling: at least 12,000 feet AGL
Clouds: few clouds at 25000 feet AGL
Weather: no significant weather observed at this time

METAR text: CYFB 170300Z 34012G17KT 15SM FEW250 M26/M30 A2988 RMK CI1 SLP125
Conditions at: CYFB (FROBISHER/IQALUI, NU, CA) observed 0300 UTC 17 November 2018
Temperature: -26.0°C (-15°F)
Dewpoint: -30.0°C (-22°F) [RH = 69%]
Pressure (altimeter): 29.88 inches Hg (1011.9 mb)
[Sea-level pressure: 1012.5 mb]
Winds: from the NNW (340 degrees) at 14 MPH (12 knots; 6.2 m/s)
gusting to 20 MPH (17 knots; 8.7 m/s)
Visibility: 15 miles (24 km)
Ceiling: at least 12,000 feet AGL
Clouds: few clouds at 25000 feet AGL
Weather: no significant weather observed at this time

METAR text: CYFB 170200Z 32014KT 15SM DRSN SKC M26/M30 A2990 RMK SLP131
Conditions at: CYFB (FROBISHER/IQALUI, NU, CA) observed 0200 UTC 17 November 2018
Temperature: -26.0°C (-15°F)
Dewpoint: -30.0°C (-22°F) [RH = 69%]
Pressure (altimeter): 29.90 inches Hg (1012.6 mb)
[Sea-level pressure: 1013.1 mb]
Winds: from the NW (320 degrees) at 16 MPH (14 knots; 7.2 m/s)
Visibility: 15 miles (24 km)
Ceiling: at least 12,000 feet AGL
Clouds: clear skies
Weather: DRSN  (low drifting snow)

METAR text: CYFB 170100Z 33019KT 15SM IC DRSN SKC M26/M30 A2991 RMK SLP136
Conditions at: CYFB (FROBISHER/IQALUI, NU, CA) observed 0100 UTC 17 November 2018
Temperature: -26.0°C (-15°F)
Dewpoint: -30.0°C (-22°F) [RH = 69%]
Pressure (altimeter): 29.91 inches Hg (1013.0 mb)
[Sea-level pressure: 1013.6 mb]
Winds: from the NNW (330 degrees) at 22 MPH (19 knots; 9.8 m/s)
Visibility: 15 miles (24 km)
Ceiling: at least 12,000 feet AGL
Clouds: clear skies
Weather: IC DRSN  (ice crystals, low drifting snow)

METAR text: CYFB 170000Z 34017KT 15SM IC DRSN SKC M26/M30 A2994 RMK SLP144
Conditions at: CYFB (FROBISHER/IQALUI, NU, CA) observed 0000 UTC 17 November 2018
Temperature: -26.0°C (-15°F)
Dewpoint: -30.0°C (-22°F) [RH = 69%]
Pressure (altimeter): 29.94 inches Hg (1014.0 mb)
[Sea-level pressure: 1014.4 mb]
Winds: from the NNW (340 degrees) at 20 MPH (17 knots; 8.7 m/s)
Visibility: 15 miles (24 km)
Ceiling: at least 12,000 feet AGL
Clouds: clear skies
Weather: IC DRSN  (ice crystals, low drifting snow)

METAR text: CYFB 162300Z 34015KT 15SM IC DRSN FEW008 M25/M29 A2993 RMK SC1 SC TR SLP142
Conditions at: CYFB (FROBISHER/IQALUI, NU, CA) observed 2300 UTC 16 November 2018
Temperature: -25.0°C (-13°F)
Dewpoint: -29.0°C (-20°F) [RH = 69%]
Pressure (altimeter): 29.93 inches Hg (1013.6 mb)
[Sea-level pressure: 1014.2 mb]
Winds: from the NNW (340 degrees) at 17 MPH (15 knots; 7.7 m/s)
Visibility: 15 miles (24 km)
Ceiling: at least 12,000 feet AGL
Clouds: few clouds at 800 feet AGL
Weather: IC DRSN  (ice crystals, low drifting snow)

METAR text: CYFB 162200Z 35020KT 15SM IC DRSN FEW008 FEW080 M25/M29 A2994 RMK SC1AC1 AC TR SLP145
Conditions at: CYFB (FROBISHER/IQALUI, NU, CA) observed 2200 UTC 16 November 2018
Temperature: -25.0°C (-13°F)
Dewpoint: -29.0°C (-20°F) [RH = 69%]
Pressure (altimeter): 29.94 inches Hg (1014.0 mb)
[Sea-level pressure: 1014.5 mb]
Winds: from the N (350 degrees) at 23 MPH (20 knots; 10.3 m/s)
Visibility: 15 miles (24 km)
Ceiling: at least 12,000 feet AGL
Clouds: few clouds at 800 feet AGL
few clouds at 8000 feet AGL
Weather: IC DRSN  (ice crystals, low drifting snow)

METAR text: CYFB 162100Z 34021KT 15SM IC DRSN FEW004 SCT080 M25/M28 A2994 RMK SC1AC2 SLP147
Conditions at: CYFB (FROBISHER/IQALUI, NU, CA) observed 2100 UTC 16 November 2018
Temperature: -25.0°C (-13°F)
Dewpoint: -28.0°C (-18°F) [RH = 76%]
Pressure (altimeter): 29.94 inches Hg (1014.0 mb)
[Sea-level pressure: 1014.7 mb]
Winds: from the NNW (340 degrees) at 24 MPH (21 knots; 10.8 m/s)
Visibility: 15 miles (24 km)
Ceiling: at least 12,000 feet AGL
Clouds: few clouds at 400 feet AGL
scattered clouds at 8000 feet AGL
Weather: IC DRSN  (ice crystals, low drifting snow)

METAR text: CYFB 162000Z 33022KT 6SM IC DRSN FEW004 SCT080 M25/M28 A2994 RMK SF1AC2 SLP146
Conditions at: CYFB (FROBISHER/IQALUI, NU, CA) observed 2000 UTC 16 November 2018
Temperature: -25.0°C (-13°F)
Dewpoint: -28.0°C (-18°F) [RH = 76%]
Pressure (altimeter): 29.94 inches Hg (1014.0 mb)
[Sea-level pressure: 1014.6 mb]
Winds: from the NNW (330 degrees) at 25 MPH (22 knots; 11.3 m/s)
Visibility: 6 miles (10 km)
Ceiling: at least 12,000 feet AGL
Clouds: few clouds at 400 feet AGL
scattered clouds at 8000 feet AGL
Weather: IC DRSN  (ice crystals, low drifting snow)

METAR text: CYFB 161900Z 34020KT 6SM IC DRSN FEW004 SCT070 SCT250 M24/M27 A2995 RMK SC2AC1CI1 VIS W-N LWR SLP148
Conditions at: CYFB (FROBISHER/IQALUI, NU, CA) observed 1900 UTC 16 November 2018
Temperature: -24.0°C (-11°F)
Dewpoint: -27.0°C (-17°F) [RH = 76%]
Pressure (altimeter): 29.95 inches Hg (1014.3 mb)
[Sea-level pressure: 1014.8 mb]
Winds: from the NNW (340 degrees) at 23 MPH (20 knots; 10.3 m/s)
Visibility: 6 miles (10 km)
Ceiling: at least 12,000 feet AGL
Clouds: few clouds at 400 feet AGL
scattered clouds at 7000 feet AGL
scattered clouds at 25000 feet AGL
Weather: IC DRSN  (ice crystals, low drifting snow)

METAR text: CYFB 161800Z 33018G24KT 10SM IC DRSN FEW004 SCT070 SCT250 M23/M27 A2994 RMK SF1AC3CI1 CI TR SLP146
Conditions at: CYFB (FROBISHER/IQALUI, NU, CA) observed 1800 UTC 16 November 2018
Temperature: -23.0°C (-9°F)
Dewpoint: -27.0°C (-17°F) [RH = 70%]
Pressure (altimeter): 29.94 inches Hg (1014.0 mb)
[Sea-level pressure: 1014.6 mb]
Winds: from the NNW (330 degrees) at 21 MPH (18 knots; 9.3 m/s)
gusting to 28 MPH (24 knots; 12.3 m/s)
Visibility: 10 or more miles (16+ km)
Ceiling: at least 12,000 feet AGL
Clouds: few clouds at 400 feet AGL
scattered clouds at 7000 feet AGL
scattered clouds at 25000 feet AGL
Weather: IC DRSN  (ice crystals, low drifting snow)

METAR text: CYFB 161700Z 31017G22KT 6SM IC DRSN FEW004 SCT070 SCT250 M23/M26 A2994 RMK SF1AC3CI1 CI TR SLP147
Conditions at: CYFB (FROBISHER/IQALUI, NU, CA) observed 1700 UTC 16 November 2018
Temperature: -23.0°C (-9°F)
Dewpoint: -26.0°C (-15°F) [RH = 76%]
Pressure (altimeter): 29.94 inches Hg (1014.0 mb)
[Sea-level pressure: 1014.7 mb]
Winds: from the NW (310 degrees) at 20 MPH (17 knots; 8.7 m/s)
gusting to 25 MPH (22 knots; 11.3 m/s)
Visibility: 6 miles (10 km)
Ceiling: at least 12,000 feet AGL
Clouds: few clouds at 400 feet AGL
scattered clouds at 7000 feet AGL
scattered clouds at 25000 feet AGL
Weather: IC DRSN  (ice crystals, low drifting snow)

METAR text: CYFB 161600Z 32020KT 6SM IC DRSN FEW004 SCT070 BKN250 M23/M26 A2993 RMK SF1AC3CI2 VIS W LWR SLP141
Conditions at: CYFB (FROBISHER/IQALUI, NU, CA) observed 1600 UTC 16 November 2018
Temperature: -23.0°C (-9°F)
Dewpoint: -26.0°C (-15°F) [RH = 76%]
Pressure (altimeter): 29.93 inches Hg (1013.6 mb)
[Sea-level pressure: 1014.1 mb]
Winds: from the NW (320 degrees) at 23 MPH (20 knots; 10.3 m/s)
Visibility: 6 miles (10 km)
Ceiling: 25000 feet AGL
Clouds: few clouds at 400 feet AGL
scattered clouds at 7000 feet AGL
broken clouds at 25000 feet AGL
Weather: IC DRSN  (ice crystals, low drifting snow)

METAR text: CYFB 161500Z 32016G22KT 6SM IC DRSN FEW004 SCT070 BKN250 M23/M26 A2993 RMK SF1AC3CI2 VIS W LWR SLP141
Conditions at: CYFB (FROBISHER/IQALUI, NU, CA) observed 1500 UTC 16 November 2018
Temperature: -23.0°C (-9°F)
Dewpoint: -26.0°C (-15°F) [RH = 76%]
Pressure (altimeter): 29.93 inches Hg (1013.6 mb)
[Sea-level pressure: 1014.1 mb]
Winds: from the NW (320 degrees) at 18 MPH (16 knots; 8.2 m/s)
gusting to 25 MPH (22 knots; 11.3 m/s)
Visibility: 6 miles (10 km)
Ceiling: 25000 feet AGL
Clouds: few clouds at 400 feet AGL
scattered clouds at 7000 feet AGL
broken clouds at 25000 feet AGL
Weather: IC DRSN  (ice crystals, low drifting snow)

METAR text: CYFB 161400Z CCA 33014KT 6SM IC DRSN FEW004 SCT070 M23/M26 A2991 RMK ST1AC3 VIS N LWR SLP135
Conditions at: CYFB (FROBISHER/IQALUI, NU, CA) observed 1400 UTC 16 November 2018
Temperature: -23.0°C (-9°F)
Dewpoint: -26.0°C (-15°F) [RH = 76%]
Pressure (altimeter): 29.91 inches Hg (1013.0 mb)
[Sea-level pressure: 1013.5 mb]
Winds: from the NNW (330 degrees) at 16 MPH (14 knots; 7.2 m/s)
Visibility: 6 miles (10 km)
Ceiling: at least 12,000 feet AGL
Clouds: few clouds at 400 feet AGL
scattered clouds at 7000 feet AGL
Weather: DRSN IC  (low drifting snow, ice crystals)

METAR text: CYFB 161300Z 34020KT 4SM IC DRSN FEW004 SCT070 M22/M26 A2990 RMK SF1AC3 SLP131
Conditions at: CYFB (FROBISHER/IQALUI, NU, CA) observed 1300 UTC 16 November 2018
Temperature: -22.0°C (-8°F)
Dewpoint: -26.0°C (-15°F) [RH = 70%]
Pressure (altimeter): 29.90 inches Hg (1012.6 mb)
[Sea-level pressure: 1013.1 mb]
Winds: from the NNW (340 degrees) at 23 MPH (20 knots; 10.3 m/s)
Visibility: 4 miles ( 6 km)
Ceiling: at least 12,000 feet AGL
Clouds: few clouds at 400 feet AGL
scattered clouds at 7000 feet AGL
Weather: IC DRSN  (ice crystals, low drifting snow)

METAR text: CYFB 161235Z 33018KT 4SM DRSN FEW004 SCT070 M22/M26 A2989 RMK SF1AC3 SLP128
Conditions at: CYFB (FROBISHER/IQALUI, NU, CA) observed 1235 UTC 16 November 2018
Temperature: -22.0°C (-8°F)
Dewpoint: -26.0°C (-15°F) [RH = 70%]
Pressure (altimeter): 29.89 inches Hg (1012.3 mb)
[Sea-level pressure: 1012.8 mb]
Winds: from the NNW (330 degrees) at 21 MPH (18 knots; 9.3 m/s)
Visibility: 4 miles ( 6 km)
Ceiling: at least 12,000 feet AGL
Clouds: few clouds at 400 feet AGL
scattered clouds at 7000 feet AGL
Weather: DRSN  (low drifting snow)

METAR text: CYFB 161200Z 33023KT 3SM IC BLSN FEW004 SCT070 M22/M25 A2988 RMK SF1AC3 SLP126
Conditions at: CYFB (FROBISHER/IQALUI, NU, CA) observed 1200 UTC 16 November 2018
Temperature: -22.0°C (-8°F)
Dewpoint: -25.0°C (-13°F) [RH = 77%]
Pressure (altimeter): 29.88 inches Hg (1011.9 mb)
[Sea-level pressure: 1012.6 mb]
Winds: from the NNW (330 degrees) at 26 MPH (23 knots; 11.8 m/s)
Visibility: 3 miles ( 5 km)
Ceiling: at least 12,000 feet AGL
Clouds: few clouds at 400 feet AGL
scattered clouds at 7000 feet AGL
Weather: IC BLSN  (ice crystals, blowing snow)

METAR text: CYFB 161100Z 32021KT 12SM IC DRSN BKN070 M22/M25 A2988 RMK AC5 SLP123
Conditions at: CYFB (FROBISHER/IQALUI, NU, CA) observed 1100 UTC 16 November 2018
Temperature: -22.0°C (-8°F)
Dewpoint: -25.0°C (-13°F) [RH = 77%]
Pressure (altimeter): 29.88 inches Hg (1011.9 mb)
[Sea-level pressure: 1012.3 mb]
Winds: from the NW (320 degrees) at 24 MPH (21 knots; 10.8 m/s)
Visibility: 12 miles (19 km)
Ceiling: 7000 feet AGL
Clouds: broken clouds at 7000 feet AGL
Weather: IC DRSN  (ice crystals, low drifting snow)

METAR text: CYFB 161000Z 33017G23KT 10SM IC DRSN BKN078 M21/M24 A2987 RMK AC7 SLP121
Conditions at: CYFB (FROBISHER/IQALUI, NU, CA) observed 1000 UTC 16 November 2018
Temperature: -21.0°C (-6°F)
Dewpoint: -24.0°C (-11°F) [RH = 77%]
Pressure (altimeter): 29.87 inches Hg (1011.6 mb)
[Sea-level pressure: 1012.1 mb]
Winds: from the NNW (330 degrees) at 20 MPH (17 knots; 8.7 m/s)
gusting to 26 MPH (23 knots; 11.8 m/s)
Visibility: 10 or more miles (16+ km)
Ceiling: 7800 feet AGL
Clouds: broken clouds at 7800 feet AGL
Weather: IC DRSN  (ice crystals, low drifting snow)

METAR text: CYFB 160900Z 33012KT 12SM IC DRSN BKN078 M21/M25 A2987 RMK AC7 SLP121
Conditions at: CYFB (FROBISHER/IQALUI, NU, CA) observed 0900 UTC 16 November 2018
Temperature: -21.0°C (-6°F)
Dewpoint: -25.0°C (-13°F) [RH = 70%]
Pressure (altimeter): 29.87 inches Hg (1011.6 mb)
[Sea-level pressure: 1012.1 mb]
Winds: from the NNW (330 degrees) at 14 MPH (12 knots; 6.2 m/s)
Visibility: 12 miles (19 km)
Ceiling: 7800 feet AGL
Clouds: broken clouds at 7800 feet AGL
Weather: IC DRSN  (ice crystals, low drifting snow)

METAR text: CYFB 160800Z 32015KT 12SM -SN DRSN BKN065 M21/M25 A2986 RMK SC5 SLP118
Conditions at: CYFB (FROBISHER/IQALUI, NU, CA) observed 0800 UTC 16 November 2018
Temperature: -21.0°C (-6°F)
Dewpoint: -25.0°C (-13°F) [RH = 70%]
Pressure (altimeter): 29.86 inches Hg (1011.3 mb)
[Sea-level pressure: 1011.8 mb]
Winds: from the NW (320 degrees) at 17 MPH (15 knots; 7.7 m/s)
Visibility: 12 miles (19 km)
Ceiling: 6500 feet AGL
Clouds: broken clouds at 6500 feet AGL
Weather: -SN DRSN  (light snow, low drifting snow)

METAR text: CYFB 160700Z 33018G24KT 12SM -SN DRSN BKN065 M21/M25 A2984 RMK SC7 SLP109
Conditions at: CYFB (FROBISHER/IQALUI, NU, CA) observed 0700 UTC 16 November 2018
Temperature: -21.0°C (-6°F)
Dewpoint: -25.0°C (-13°F) [RH = 70%]
Pressure (altimeter): 29.84 inches Hg (1010.6 mb)
[Sea-level pressure: 1010.9 mb]
Winds: from the NNW (330 degrees) at 21 MPH (18 knots; 9.3 m/s)
gusting to 28 MPH (24 knots; 12.3 m/s)
Visibility: 12 miles (19 km)
Ceiling: 6500 feet AGL
Clouds: broken clouds at 6500 feet AGL
Weather: -SN DRSN  (light snow, low drifting snow)

METAR text: CYFB 160600Z 33017KT 15SM -SN DRSN BKN050 M21/M25 A2982 RMK SC5 SLP105
Conditions at: CYFB (FROBISHER/IQALUI, NU, CA) observed 0600 UTC 16 November 2018
Temperature: -21.0°C (-6°F)
Dewpoint: -25.0°C (-13°F) [RH = 70%]
Pressure (altimeter): 29.82 inches Hg (1009.9 mb)
[Sea-level pressure: 1010.5 mb]
Winds: from the NNW (330 degrees) at 20 MPH (17 knots; 8.7 m/s)
Visibility: 15 miles (24 km)
Ceiling: 5000 feet AGL
Clouds: broken clouds at 5000 feet AGL
Weather: -SN DRSN  (light snow, low drifting snow)

METAR text: CYFB 160500Z 32015KT 10SM -SN DRSN BKN060 M21/M25 A2980 RMK SC5 SLP096
Conditions at: CYFB (FROBISHER/IQALUI, NU, CA) observed 0500 UTC 16 November 2018
Temperature: -21.0°C (-6°F)
Dewpoint: -25.0°C (-13°F) [RH = 70%]
Pressure (altimeter): 29.80 inches Hg (1009.2 mb)
[Sea-level pressure: 1009.6 mb]
Winds: from the NW (320 degrees) at 17 MPH (15 knots; 7.7 m/s)
Visibility: 10 or more miles (16+ km)
Ceiling: 6000 feet AGL
Clouds: broken clouds at 6000 feet AGL
Weather: -SN DRSN  (light snow, low drifting snow)

METAR text: CYFB 160400Z 32018KT 6SM -SN DRSN BKN037 OVC068 M21/M24 A2979 RMK SN4SC2AC2 SLP094
Conditions at: CYFB (FROBISHER/IQALUI, NU, CA) observed 0400 UTC 16 November 2018
Temperature: -21.0°C (-6°F)
Dewpoint: -24.0°C (-11°F) [RH = 77%]
Pressure (altimeter): 29.79 inches Hg (1008.9 mb)
[Sea-level pressure: 1009.4 mb]
Winds: from the NW (320 degrees) at 21 MPH (18 knots; 9.3 m/s)
Visibility: 6 miles (10 km)
Ceiling: 3700 feet AGL
Clouds: broken clouds at 3700 feet AGL
overcast cloud deck at 6800 feet AGL
Weather: -SN DRSN  (light snow, low drifting snow)

METAR text: CYFB 160320Z 32017KT 10SM -SN DRSN SCT012 SCT037 BKN068 M21/M25 A2979 RMK SN3SC1SC1AC3 SC TR SLP095
Conditions at: CYFB (FROBISHER/IQALUI, NU, CA) observed 0320 UTC 16 November 2018
Temperature: -21.0°C (-6°F)
Dewpoint: -25.0°C (-13°F) [RH = 70%]
Pressure (altimeter): 29.79 inches Hg (1008.9 mb)
[Sea-level pressure: 1009.5 mb]
Winds: from the NW (320 degrees) at 20 MPH (17 knots; 8.7 m/s)
Visibility: 10 or more miles (16+ km)
Ceiling: 6800 feet AGL
Clouds: scattered clouds at 1200 feet AGL
scattered clouds at 3700 feet AGL
broken clouds at 6800 feet AGL
Weather: -SN DRSN  (light snow, low drifting snow)

METAR text: CYFB 160305Z 32016KT 10SM IC DRSN VV037 M21/M25 A2980 RMK IC8 SLP096
Conditions at: CYFB (FROBISHER/IQALUI, NU, CA) observed 0305 UTC 16 November 2018
Temperature: -21.0°C (-6°F)
Dewpoint: -25.0°C (-13°F) [RH = 70%]
Pressure (altimeter): 29.80 inches Hg (1009.2 mb)
[Sea-level pressure: 1009.6 mb]
Winds: from the NW (320 degrees) at 18 MPH (16 knots; 8.2 m/s)
Visibility: 10 or more miles (16+ km)
Ceiling: indefinite ceiling with vertical visibility of 3700 feet AGL
Clouds: obscured sky
Weather: IC DRSN  (ice crystals, low drifting snow)

METAR text: CYFB 160300Z 32016KT 15SM IC DRSN FEW037 SCT100 M21/M25 A2980 RMK SC2AC2 SLP096
Conditions at: CYFB (FROBISHER/IQALUI, NU, CA) observed 0300 UTC 16 November 2018
Temperature: -21.0°C (-6°F)
Dewpoint: -25.0°C (-13°F) [RH = 70%]
Pressure (altimeter): 29.80 inches Hg (1009.2 mb)
[Sea-level pressure: 1009.6 mb]
Winds: from the NW (320 degrees) at 18 MPH (16 knots; 8.2 m/s)
Visibility: 15 miles (24 km)
Ceiling: at least 12,000 feet AGL
Clouds: few clouds at 3700 feet AGL
scattered clouds at 10000 feet AGL
Weather: IC DRSN  (ice crystals, low drifting snow)

METAR text: CYFB 160200Z 32016KT 15SM IC DRSN FEW039 SCT140 M21/M25 A2979 RMK SC1AC2 SLP094
Conditions at: CYFB (FROBISHER/IQALUI, NU, CA) observed 0200 UTC 16 November 2018
Temperature: -21.0°C (-6°F)
Dewpoint: -25.0°C (-13°F) [RH = 70%]
Pressure (altimeter): 29.79 inches Hg (1008.9 mb)
[Sea-level pressure: 1009.4 mb]
Winds: from the NW (320 degrees) at 18 MPH (16 knots; 8.2 m/s)
Visibility: 15 miles (24 km)
Ceiling: at least 12,000 feet AGL
Clouds: few clouds at 3900 feet AGL
scattered clouds at 14000 feet AGL
Weather: IC DRSN  (ice crystals, low drifting snow)

METAR text: CYFB 160100Z 31015KT 15SM IC DRSN FEW044 SCT120 M21/M24 A2978 RMK SC1AC2 SLP092
Conditions at: CYFB (FROBISHER/IQALUI, NU, CA) observed 0100 UTC 16 November 2018
Temperature: -21.0°C (-6°F)
Dewpoint: -24.0°C (-11°F) [RH = 77%]
Pressure (altimeter): 29.78 inches Hg (1008.5 mb)
[Sea-level pressure: 1009.2 mb]
Winds: from the NW (310 degrees) at 17 MPH (15 knots; 7.7 m/s)
Visibility: 15 miles (24 km)
Ceiling: at least 12,000 feet AGL
Clouds: few clouds at 4400 feet AGL
scattered clouds at 12000 feet AGL
Weather: IC DRSN  (ice crystals, low drifting snow)

METAR text: CYFB 160000Z 32018KT 15SM IC DRSN FEW034 FEW140 M20/M24 A2978 RMK SC1AC1 SC TR AC TR SLP090
Conditions at: CYFB (FROBISHER/IQALUI, NU, CA) observed 0000 UTC 16 November 2018
Temperature: -20.0°C (-4°F)
Dewpoint: -24.0°C (-11°F) [RH = 70%]
Pressure (altimeter): 29.78 inches Hg (1008.5 mb)
[Sea-level pressure: 1009.0 mb]
Winds: from the NW (320 degrees) at 21 MPH (18 knots; 9.3 m/s)
Visibility: 15 miles (24 km)
Ceiling: at least 12,000 feet AGL
Clouds: few clouds at 3400 feet AGL
few clouds at 14000 feet AGL
Weather: IC DRSN  (ice crystals, low drifting snow)

METAR text: CYFB 152325Z 31014KT 15SM IC DRSN FEW054 FEW140 M21/M24 A2978 RMK SC1AC1 SC TR AC TR SLP090
Conditions at: CYFB (FROBISHER/IQALUI, NU, CA) observed 2325 UTC 15 November 2018
Temperature: -21.0°C (-6°F)
Dewpoint: -24.0°C (-11°F) [RH = 77%]
Pressure (altimeter): 29.78 inches Hg (1008.5 mb)
[Sea-level pressure: 1009.0 mb]
Winds: from the NW (310 degrees) at 16 MPH (14 knots; 7.2 m/s)
Visibility: 15 miles (24 km)
Ceiling: at least 12,000 feet AGL
Clouds: few clouds at 5400 feet AGL
few clouds at 14000 feet AGL
Weather: IC DRSN  (ice crystals, low drifting snow)

METAR text: CYFB 152300Z 32014KT 15SM -SN DRSN FEW054 SCT140 M20/M24 A2978 RMK SC2AC2 SLP089
Conditions at: CYFB (FROBISHER/IQALUI, NU, CA) observed 2300 UTC 15 November 2018
Temperature: -20.0°C (-4°F)
Dewpoint: -24.0°C (-11°F) [RH = 70%]
Pressure (altimeter): 29.78 inches Hg (1008.5 mb)
[Sea-level pressure: 1008.9 mb]
Winds: from the NW (320 degrees) at 16 MPH (14 knots; 7.2 m/s)
Visibility: 15 miles (24 km)
Ceiling: at least 12,000 feet AGL
Clouds: few clouds at 5400 feet AGL
scattered clouds at 14000 feet AGL
Weather: -SN DRSN  (light snow, low drifting snow)

METAR text: CYFB 152200Z 34016G23KT 10SM -SN DRSN BKN054 BKN140 M19/M23 A2977 RMK SC5AC2 SLP086
Conditions at: CYFB (FROBISHER/IQALUI, NU, CA) observed 2200 UTC 15 November 2018
Temperature: -19.0°C (-2°F)
Dewpoint: -23.0°C (-9°F) [RH = 71%]
Pressure (altimeter): 29.77 inches Hg (1008.2 mb)
[Sea-level pressure: 1008.6 mb]
Winds: from the NNW (340 degrees) at 18 MPH (16 knots; 8.2 m/s)
gusting to 26 MPH (23 knots; 11.8 m/s)
Visibility: 10 or more miles (16+ km)
Ceiling: 5400 feet AGL
Clouds: broken clouds at 5400 feet AGL
broken clouds at 14000 feet AGL
Weather: -SN DRSN  (light snow, low drifting snow)

METAR text: CYFB 152134Z 33020KT 10SM -SN DRSN BKN052 BKN140 M19/M23 A2976 RMK SC5AC2 SLP085
Conditions at: CYFB (FROBISHER/IQALUI, NU, CA) observed 2134 UTC 15 November 2018
Temperature: -19.0°C (-2°F)
Dewpoint: -23.0°C (-9°F) [RH = 71%]
Pressure (altimeter): 29.76 inches Hg (1007.9 mb)
[Sea-level pressure: 1008.5 mb]
Winds: from the NNW (330 degrees) at 23 MPH (20 knots; 10.3 m/s)
Visibility: 10 or more miles (16+ km)
Ceiling: 5200 feet AGL
Clouds: broken clouds at 5200 feet AGL
broken clouds at 14000 feet AGL
Weather: -SN DRSN  (light snow, low drifting snow)

METAR text: CYFB 152100Z 34017KT 10SM -SN DRSN FEW024 OVC049 M19/M23 A2977 RMK SC2SC6 SLP086
Conditions at: CYFB (FROBISHER/IQALUI, NU, CA) observed 2100 UTC 15 November 2018
Temperature: -19.0°C (-2°F)
Dewpoint: -23.0°C (-9°F) [RH = 71%]
Pressure (altimeter): 29.77 inches Hg (1008.2 mb)
[Sea-level pressure: 1008.6 mb]
Winds: from the NNW (340 degrees) at 20 MPH (17 knots; 8.7 m/s)
Visibility: 10 or more miles (16+ km)
Ceiling: 4900 feet AGL
Clouds: few clouds at 2400 feet AGL
overcast cloud deck at 4900 feet AGL
Weather: -SN DRSN  (light snow, low drifting snow)

Forecast for: CYFB (FROBISHER/IQALUI, NU, CA)
Text: TAF CYFB 170538Z 1706/1806 34010KT P6SM IC FEW250
Forecast period: 0600 to 1300 UTC 17 November 2018
Forecast type: FROM: standard forecast or significant change
Winds: from the NNW (340 degrees) at 12 MPH (10 knots; 5.1 m/s)
Visibility: 6 or more miles 10+ km)
Ceiling: at least 12,000 feet AGL
Clouds: few clouds at 25000 feet AGL
Weather: IC  (ice crystals)
Text: BECMG 1713/1715 34005KT RMK NXT FCST BY 171200Z
Forecast period: 1300 UTC 17 November 2018 to 0600 UTC 18 November 2018
Forecast type: BECOMING: Conditions expected to become as follows by 1500 UTC 17 November 2018
Winds: from the NNW (340 degrees) at 6 MPH (5 knots; 2.6 m/s)
Visibility: 6 or more miles 10+ km)
Ceiling: at least 12,000 feet AGL
Clouds: few clouds at 25000 feet AGL
Weather: IC  (ice crystals)